Smoke Creek, Nevada
Current Conditions -  °F | °C
As of 3:55 PM on Sunday 23 Nov 2014 (Local Time) from KAAT Reporting Station
Overcast Overcast  
Wind Chill: 40°   Ceiling: 11000
Heat Index: 40°   Visibility: 10mi
Dew Point: 26°   Wind: 0mph
Humidity: 58%   Direction: NA
Pressure: 30.32"   Gusts: NA
Location:  41.1852°N, 119.649°W
Report Text: KAAT 232355Z AUTO 00000KT 10SM OVC110 04/M03 A3032 RMK AO2 SLP279 T00441033 10050 20006 57005
Loading
Personal Weather Stations






























Interactive Weather Map New forecast layout! Learn more

10-Day Weather Forecast

Advertisements
Track Severe Weather on mobile